sensor_id;sensor_type;location;lat;lon;timestamp;P1;durP1;ratioP1;P2;durP2;ratioP2
7753;SDS011;3921;42.266;23.122;2023-04-24T00:00:54;13.00;;;9.40;;
7753;SDS011;3921;42.266;23.122;2023-04-24T00:03:23;9.90;;;8.80;;
7753;SDS011;3921;42.266;23.122;2023-04-24T00:05:53;11.23;;;8.87;;
7753;SDS011;3921;42.266;23.122;2023-04-24T00:08:20;11.87;;;8.73;;
7753;SDS011;3921;42.266;23.122;2023-04-24T00:10:47;9.63;;;8.67;;
7753;SDS011;3921;42.266;23.122;2023-04-24T00:13:14;12.53;;;9.50;;
7753;SDS011;3921;42.266;23.122;2023-04-24T00:15:41;12.10;;;9.33;;
7753;SDS011;3921;42.266;23.122;2023-04-24T00:18:10;9.83;;;8.30;;
7753;SDS011;3921;42.266;23.122;2023-04-24T00:20:37;11.60;;;8.57;;
7753;SDS011;3921;42.266;23.122;2023-04-24T00:23:06;10.80;;;7.63;;
7753;SDS011;3921;42.266;23.122;2023-04-24T00:25:33;11.23;;;8.93;;
7753;SDS011;3921;42.266;23.122;2023-04-24T00:28:02;9.63;;;8.63;;
7753;SDS011;3921;42.266;23.122;2023-04-24T00:30:30;9.90;;;8.77;;
7753;SDS011;3921;42.266;23.122;2023-04-24T00:32:58;9.77;;;8.77;;
7753;SDS011;3921;42.266;23.122;2023-04-24T00:35:29;10.47;;;8.13;;
7753;SDS011;3921;42.266;23.122;2023-04-24T00:37:56;9.63;;;8.60;;
7753;SDS011;3921;42.266;23.122;2023-04-24T00:40:23;10.97;;;8.87;;
7753;SDS011;3921;42.266;23.122;2023-04-24T00:42:50;10.77;;;8.30;;
7753;SDS011;3921;42.266;23.122;2023-04-24T00:45:17;9.67;;;8.50;;
7753;SDS011;3921;42.266;23.122;2023-04-24T00:47:44;13.67;;;9.73;;
7753;SDS011;3921;42.266;23.122;2023-04-24T00:50:14;12.60;;;10.37;;
7753;SDS011;3921;42.266;23.122;2023-04-24T00:52:46;12.87;;;9.37;;
7753;SDS011;3921;42.266;23.122;2023-04-24T00:55:15;13.93;;;10.07;;
7753;SDS011;3921;42.266;23.122;2023-04-24T00:57:43;12.70;;;9.73;;
7753;SDS011;3921;42.266;23.122;2023-04-24T01:00:10;11.47;;;9.60;;
7753;SDS011;3921;42.266;23.122;2023-04-24T01:02:39;12.23;;;9.83;;
7753;SDS011;3921;42.266;23.122;2023-04-24T01:05:10;12.10;;;9.33;;
7753;SDS011;3921;42.266;23.122;2023-04-24T01:07:38;12.03;;;9.17;;
7753;SDS011;3921;42.266;23.122;2023-04-24T01:10:12;11.23;;;9.40;;
7753;SDS011;3921;42.266;23.122;2023-04-24T01:12:40;11.80;;;9.47;;
7753;SDS011;3921;42.266;23.122;2023-04-24T01:15:08;11.90;;;9.57;;
7753;SDS011;3921;42.266;23.122;2023-04-24T01:17:36;13.60;;;9.70;;
7753;SDS011;3921;42.266;23.122;2023-04-24T01:20:04;11.80;;;9.97;;
7753;SDS011;3921;42.266;23.122;2023-04-24T01:22:36;10.80;;;9.13;;
7753;SDS011;3921;42.266;23.122;2023-04-24T01:25:03;12.67;;;10.57;;
7753;SDS011;3921;42.266;23.122;2023-04-24T01:27:35;12.13;;;10.13;;
7753;SDS011;3921;42.266;23.122;2023-04-24T01:30:02;11.50;;;9.77;;
7753;SDS011;3921;42.266;23.122;2023-04-24T01:32:29;12.43;;;9.77;;
7753;SDS011;3921;42.266;23.122;2023-04-24T01:34:59;13.13;;;10.50;;
7753;SDS011;3921;42.266;23.122;2023-04-24T01:37:27;12.63;;;9.67;;
7753;SDS011;3921;42.266;23.122;2023-04-24T01:39:55;12.27;;;10.43;;
7753;SDS011;3921;42.266;23.122;2023-04-24T01:42:22;12.03;;;10.40;;
7753;SDS011;3921;42.266;23.122;2023-04-24T01:44:50;12.47;;;9.70;;
7753;SDS011;3921;42.266;23.122;2023-04-24T01:47:17;11.87;;;9.80;;
7753;SDS011;3921;42.266;23.122;2023-04-24T01:49:46;11.97;;;9.73;;
7753;SDS011;3921;42.266;23.122;2023-04-24T01:52:14;10.63;;;9.10;;
7753;SDS011;3921;42.266;23.122;2023-04-24T01:54:42;10.80;;;9.33;;
7753;SDS011;3921;42.266;23.122;2023-04-24T01:57:11;9.93;;;9.03;;
7753;SDS011;3921;42.266;23.122;2023-04-24T01:59:40;10.40;;;9.00;;
7753;SDS011;3921;42.266;23.122;2023-04-24T02:02:07;13.23;;;9.63;;
7753;SDS011;3921;42.266;23.122;2023-04-24T02:04:34;10.23;;;9.23;;
7753;SDS011;3921;42.266;23.122;2023-04-24T02:07:01;11.33;;;9.97;;
7753;SDS011;3921;42.266;23.122;2023-04-24T02:09:28;11.07;;;9.83;;
7753;SDS011;3921;42.266;23.122;2023-04-24T02:11:58;11.57;;;9.63;;
7753;SDS011;3921;42.266;23.122;2023-04-24T02:14:27;11.40;;;10.20;;
7753;SDS011;3921;42.266;23.122;2023-04-24T02:16:57;14.07;;;10.13;;
7753;SDS011;3921;42.266;23.122;2023-04-24T02:19:24;12.90;;;9.20;;
7753;SDS011;3921;42.266;23.122;2023-04-24T02:21:56;11.37;;;8.97;;
7753;SDS011;3921;42.266;23.122;2023-04-24T02:24:23;12.40;;;10.07;;
7753;SDS011;3921;42.266;23.122;2023-04-24T02:26:52;10.83;;;9.37;;
7753;SDS011;3921;42.266;23.122;2023-04-24T02:29:22;12.07;;;10.03;;
7753;SDS011;3921;42.266;23.122;2023-04-24T02:31:54;13.00;;;10.43;;
7753;SDS011;3921;42.266;23.122;2023-04-24T02:34:26;11.53;;;10.27;;
7753;SDS011;3921;42.266;23.122;2023-04-24T02:36:53;11.53;;;10.27;;
7753;SDS011;3921;42.266;23.122;2023-04-24T02:39:20;11.07;;;9.67;;
7753;SDS011;3921;42.266;23.122;2023-04-24T02:41:47;16.60;;;9.80;;
7753;SDS011;3921;42.266;23.122;2023-04-24T02:44:14;11.50;;;9.67;;
7753;SDS011;3921;42.266;23.122;2023-04-24T02:46:42;10.50;;;9.43;;
7753;SDS011;3921;42.266;23.122;2023-04-24T02:49:11;11.27;;;9.90;;
7753;SDS011;3921;42.266;23.122;2023-04-24T02:51:38;13.53;;;12.13;;
7753;SDS011;3921;42.266;23.122;2023-04-24T02:54:06;14.43;;;10.80;;
7753;SDS011;3921;42.266;23.122;2023-04-24T02:56:34;11.13;;;9.77;;
7753;SDS011;3921;42.266;23.122;2023-04-24T02:59:02;10.47;;;9.37;;
7753;SDS011;3921;42.266;23.122;2023-04-24T03:01:31;11.07;;;9.93;;
7753;SDS011;3921;42.266;23.122;2023-04-24T03:04:01;13.27;;;11.13;;
7753;SDS011;3921;42.266;23.122;2023-04-24T03:06:30;12.57;;;10.77;;
7753;SDS011;3921;42.266;23.122;2023-04-24T03:09:04;11.50;;;9.70;;
7753;SDS011;3921;42.266;23.122;2023-04-24T03:11:31;12.37;;;10.70;;
7753;SDS011;3921;42.266;23.122;2023-04-24T03:14:00;12.77;;;11.23;;
7753;SDS011;3921;42.266;23.122;2023-04-24T03:16:27;11.90;;;10.20;;
7753;SDS011;3921;42.266;23.122;2023-04-24T03:18:54;11.83;;;9.90;;
7753;SDS011;3921;42.266;23.122;2023-04-24T03:21:21;14.10;;;11.17;;
7753;SDS011;3921;42.266;23.122;2023-04-24T03:23:53;12.53;;;11.23;;
7753;SDS011;3921;42.266;23.122;2023-04-24T03:26:22;14.27;;;11.23;;
7753;SDS011;3921;42.266;23.122;2023-04-24T03:28:49;15.13;;;11.20;;
7753;SDS011;3921;42.266;23.122;2023-04-24T03:31:16;14.97;;;11.30;;
7753;SDS011;3921;42.266;23.122;2023-04-24T03:33:44;14.93;;;12.13;;
7753;SDS011;3921;42.266;23.122;2023-04-24T03:36:11;12.90;;;11.37;;
7753;SDS011;3921;42.266;23.122;2023-04-24T03:38:38;12.47;;;10.50;;
7753;SDS011;3921;42.266;23.122;2023-04-24T03:41:06;12.97;;;10.70;;
7753;SDS011;3921;42.266;23.122;2023-04-24T03:43:48;12.67;;;10.37;;
7753;SDS011;3921;42.266;23.122;2023-04-24T03:46:15;12.40;;;9.93;;
7753;SDS011;3921;42.266;23.122;2023-04-24T03:48:42;12.37;;;9.87;;
7753;SDS011;3921;42.266;23.122;2023-04-24T03:51:10;12.97;;;10.47;;
7753;SDS011;3921;42.266;23.122;2023-04-24T03:53:37;12.83;;;10.77;;
7753;SDS011;3921;42.266;23.122;2023-04-24T03:56:04;13.47;;;10.37;;
7753;SDS011;3921;42.266;23.122;2023-04-24T03:58:32;11.97;;;10.50;;
7753;SDS011;3921;42.266;23.122;2023-04-24T04:00:59;12.97;;;11.10;;
7753;SDS011;3921;42.266;23.122;2023-04-24T04:03:26;15.03;;;11.07;;
7753;SDS011;3921;42.266;23.122;2023-04-24T04:05:53;15.57;;;11.43;;
7753;SDS011;3921;42.266;23.122;2023-04-24T04:08:20;13.80;;;10.97;;
7753;SDS011;3921;42.266;23.122;2023-04-24T04:10:47;14.40;;;10.97;;
7753;SDS011;3921;42.266;23.122;2023-04-24T04:13:16;15.73;;;11.97;;
7753;SDS011;3921;42.266;23.122;2023-04-24T04:15:43;16.03;;;12.00;;
7753;SDS011;3921;42.266;23.122;2023-04-24T04:18:10;17.93;;;12.60;;
7753;SDS011;3921;42.266;23.122;2023-04-24T04:20:37;19.37;;;13.13;;
7753;SDS011;3921;42.266;23.122;2023-04-24T04:23:04;21.47;;;13.10;;
7753;SDS011;3921;42.266;23.122;2023-04-24T04:25:31;20.67;;;14.57;;
7753;SDS011;3921;42.266;23.122;2023-04-24T04:27:58;20.20;;;15.10;;
7753;SDS011;3921;42.266;23.122;2023-04-24T04:30:27;20.23;;;14.53;;
7753;SDS011;3921;42.266;23.122;2023-04-24T04:32:57;16.30;;;12.73;;
7753;SDS011;3921;42.266;23.122;2023-04-24T04:35:24;17.03;;;13.37;;
7753;SDS011;3921;42.266;23.122;2023-04-24T04:37:51;17.13;;;12.43;;
7753;SDS011;3921;42.266;23.122;2023-04-24T04:40:18;16.43;;;13.03;;
7753;SDS011;3921;42.266;23.122;2023-04-24T04:42:46;15.83;;;12.53;;
7753;SDS011;3921;42.266;23.122;2023-04-24T04:48:29;16.20;;;12.53;;
7753;SDS011;3921;42.266;23.122;2023-04-24T04:50:58;27.83;;;18.20;;
7753;SDS011;3921;42.266;23.122;2023-04-24T04:53:25;29.50;;;16.60;;
7753;SDS011;3921;42.266;23.122;2023-04-24T04:55:53;25.20;;;17.20;;
7753;SDS011;3921;42.266;23.122;2023-04-24T04:58:21;30.53;;;18.27;;
7753;SDS011;3921;42.266;23.122;2023-04-24T05:00:52;25.53;;;16.47;;
7753;SDS011;3921;42.266;23.122;2023-04-24T05:03:26;23.10;;;17.17;;
7753;SDS011;3921;42.266;23.122;2023-04-24T05:06:11;21.73;;;15.67;;
7753;SDS011;3921;42.266;23.122;2023-04-24T05:08:38;19.03;;;14.77;;
7753;SDS011;3921;42.266;23.122;2023-04-24T05:11:15;18.63;;;13.80;;
7753;SDS011;3921;42.266;23.122;2023-04-24T05:13:52;19.70;;;12.83;;
7753;SDS011;3921;42.266;23.122;2023-04-24T05:16:40;16.00;;;11.93;;
7753;SDS011;3921;42.266;23.122;2023-04-24T05:19:07;14.53;;;11.43;;
7753;SDS011;3921;42.266;23.122;2023-04-24T05:21:36;15.27;;;11.90;;
7753;SDS011;3921;42.266;23.122;2023-04-24T05:24:04;16.63;;;12.60;;
7753;SDS011;3921;42.266;23.122;2023-04-24T05:26:32;16.93;;;13.50;;
7753;SDS011;3921;42.266;23.122;2023-04-24T05:29:00;21.10;;;15.03;;
7753;SDS011;3921;42.266;23.122;2023-04-24T05:31:27;18.47;;;14.20;;
7753;SDS011;3921;42.266;23.122;2023-04-24T05:33:54;13.83;;;12.37;;
7753;SDS011;3921;42.266;23.122;2023-04-24T05:36:21;16.43;;;12.80;;
7753;SDS011;3921;42.266;23.122;2023-04-24T05:38:50;15.80;;;13.87;;
7753;SDS011;3921;42.266;23.122;2023-04-24T05:41:17;14.40;;;12.07;;
7753;SDS011;3921;42.266;23.122;2023-04-24T05:43:44;12.67;;;11.37;;
7753;SDS011;3921;42.266;23.122;2023-04-24T05:46:11;14.40;;;10.30;;
7753;SDS011;3921;42.266;23.122;2023-04-24T05:48:38;13.77;;;9.93;;
7753;SDS011;3921;42.266;23.122;2023-04-24T05:51:05;11.40;;;10.20;;
7753;SDS011;3921;42.266;23.122;2023-04-24T05:53:35;11.77;;;10.43;;
7753;SDS011;3921;42.266;23.122;2023-04-24T05:56:09;11.93;;;10.43;;
7753;SDS011;3921;42.266;23.122;2023-04-24T05:58:39;12.60;;;10.67;;
7753;SDS011;3921;42.266;23.122;2023-04-24T06:01:06;12.83;;;10.50;;
7753;SDS011;3921;42.266;23.122;2023-04-24T06:03:34;10.50;;;9.50;;
7753;SDS011;3921;42.266;23.122;2023-04-24T06:06:01;11.20;;;9.83;;
7753;SDS011;3921;42.266;23.122;2023-04-24T06:08:33;11.40;;;10.17;;
7753;SDS011;3921;42.266;23.122;2023-04-24T06:11:00;11.13;;;9.67;;
7753;SDS011;3921;42.266;23.122;2023-04-24T06:13:29;10.80;;;9.03;;
7753;SDS011;3921;42.266;23.122;2023-04-24T06:15:56;9.60;;;8.60;;
7753;SDS011;3921;42.266;23.122;2023-04-24T06:18:24;11.07;;;8.23;;
7753;SDS011;3921;42.266;23.122;2023-04-24T06:20:51;9.13;;;8.23;;
7753;SDS011;3921;42.266;23.122;2023-04-24T06:23:18;10.63;;;8.07;;
7753;SDS011;3921;42.266;23.122;2023-04-24T06:25:45;9.30;;;8.37;;
7753;SDS011;3921;42.266;23.122;2023-04-24T06:28:12;8.87;;;7.83;;
7753;SDS011;3921;42.266;23.122;2023-04-24T06:30:40;9.23;;;8.33;;
7753;SDS011;3921;42.266;23.122;2023-04-24T06:33:08;9.90;;;7.80;;
7753;SDS011;3921;42.266;23.122;2023-04-24T06:35:35;9.73;;;8.00;;
7753;SDS011;3921;42.266;23.122;2023-04-24T06:38:03;9.80;;;8.63;;
7753;SDS011;3921;42.266;23.122;2023-04-24T06:40:41;8.80;;;7.90;;
7753;SDS011;3921;42.266;23.122;2023-04-24T06:43:08;11.10;;;8.83;;
7753;SDS011;3921;42.266;23.122;2023-04-24T06:45:36;10.23;;;9.10;;
7753;SDS011;3921;42.266;23.122;2023-04-24T06:48:05;9.43;;;7.73;;
7753;SDS011;3921;42.266;23.122;2023-04-24T06:50:32;10.60;;;8.17;;
7753;SDS011;3921;42.266;23.122;2023-04-24T06:52:59;11.70;;;6.53;;
7753;SDS011;3921;42.266;23.122;2023-04-24T06:55:26;8.90;;;7.20;;
7753;SDS011;3921;42.266;23.122;2023-04-24T06:57:53;9.57;;;7.17;;
7753;SDS011;3921;42.266;23.122;2023-04-24T07:00:20;9.23;;;6.90;;
7753;SDS011;3921;42.266;23.122;2023-04-24T07:02:49;7.77;;;6.97;;
7753;SDS011;3921;42.266;23.122;2023-04-24T07:05:18;8.20;;;7.10;;
7753;SDS011;3921;42.266;23.122;2023-04-24T07:07:46;9.83;;;7.03;;
7753;SDS011;3921;42.266;23.122;2023-04-24T07:10:14;7.97;;;6.20;;
7753;SDS011;3921;42.266;23.122;2023-04-24T07:12:41;8.63;;;6.70;;
7753;SDS011;3921;42.266;23.122;2023-04-24T07:15:09;8.47;;;6.40;;
7753;SDS011;3921;42.266;23.122;2023-04-24T07:17:36;10.03;;;7.13;;
7753;SDS011;3921;42.266;23.122;2023-04-24T07:20:08;9.73;;;7.07;;
7753;SDS011;3921;42.266;23.122;2023-04-24T07:22:38;10.70;;;6.67;;
7753;SDS011;3921;42.266;23.122;2023-04-24T07:25:05;7.07;;;6.43;;
7753;SDS011;3921;42.266;23.122;2023-04-24T07:27:33;8.23;;;6.80;;
7753;SDS011;3921;42.266;23.122;2023-04-24T07:30:01;7.23;;;6.53;;
7753;SDS011;3921;42.266;23.122;2023-04-24T07:32:29;7.43;;;6.20;;
7753;SDS011;3921;42.266;23.122;2023-04-24T07:35:05;9.23;;;6.87;;
7753;SDS011;3921;42.266;23.122;2023-04-24T07:37:34;7.17;;;6.10;;
7753;SDS011;3921;42.266;23.122;2023-04-24T07:40:03;8.57;;;6.33;;
7753;SDS011;3921;42.266;23.122;2023-04-24T07:42:31;7.67;;;6.90;;
7753;SDS011;3921;42.266;23.122;2023-04-24T07:44:59;7.83;;;7.10;;
7753;SDS011;3921;42.266;23.122;2023-04-24T07:47:26;8.17;;;7.00;;
7753;SDS011;3921;42.266;23.122;2023-04-24T07:49:53;7.77;;;5.93;;
7753;SDS011;3921;42.266;23.122;2023-04-24T07:52:20;6.73;;;6.10;;
7753;SDS011;3921;42.266;23.122;2023-04-24T07:54:47;6.17;;;5.57;;
7753;SDS011;3921;42.266;23.122;2023-04-24T07:57:16;7.00;;;6.30;;
7753;SDS011;3921;42.266;23.122;2023-04-24T07:59:43;6.67;;;5.63;;
7753;SDS011;3921;42.266;23.122;2023-04-24T08:02:10;6.77;;;6.07;;
7753;SDS011;3921;42.266;23.122;2023-04-24T08:04:37;6.93;;;6.23;;
7753;SDS011;3921;42.266;23.122;2023-04-24T08:07:04;6.70;;;5.90;;
7753;SDS011;3921;42.266;23.122;2023-04-24T08:09:31;6.63;;;6.03;;
7753;SDS011;3921;42.266;23.122;2023-04-24T08:11:58;7.17;;;5.83;;
7753;SDS011;3921;42.266;23.122;2023-04-24T08:14:29;7.40;;;5.57;;
7753;SDS011;3921;42.266;23.122;2023-04-24T08:16:56;6.13;;;5.53;;
7753;SDS011;3921;42.266;23.122;2023-04-24T08:19:25;6.77;;;5.60;;
7753;SDS011;3921;42.266;23.122;2023-04-24T08:21:52;6.33;;;5.73;;
7753;SDS011;3921;42.266;23.122;2023-04-24T08:24:21;6.17;;;5.20;;
7753;SDS011;3921;42.266;23.122;2023-04-24T08:26:49;7.50;;;5.90;;
7753;SDS011;3921;42.266;23.122;2023-04-24T08:29:16;6.50;;;5.90;;
7753;SDS011;3921;42.266;23.122;2023-04-24T08:31:45;5.80;;;5.20;;
7753;SDS011;3921;42.266;23.122;2023-04-24T08:34:12;7.13;;;5.77;;
7753;SDS011;3921;42.266;23.122;2023-04-24T08:36:39;6.17;;;5.57;;
7753;SDS011;3921;42.266;23.122;2023-04-24T08:39:07;6.80;;;5.90;;
7753;SDS011;3921;42.266;23.122;2023-04-24T08:41:34;7.07;;;5.33;;
7753;SDS011;3921;42.266;23.122;2023-04-24T08:44:03;6.37;;;5.00;;
7753;SDS011;3921;42.266;23.122;2023-04-24T08:46:30;6.73;;;5.70;;
7753;SDS011;3921;42.266;23.122;2023-04-24T08:48:58;6.80;;;5.27;;
7753;SDS011;3921;42.266;23.122;2023-04-24T08:51:26;7.07;;;5.77;;
7753;SDS011;3921;42.266;23.122;2023-04-24T08:53:55;8.30;;;5.40;;
7753;SDS011;3921;42.266;23.122;2023-04-24T08:56:23;7.90;;;5.77;;
7753;SDS011;3921;42.266;23.122;2023-04-24T08:58:54;7.23;;;5.80;;
7753;SDS011;3921;42.266;23.122;2023-04-24T09:01:21;6.80;;;5.90;;
7753;SDS011;3921;42.266;23.122;2023-04-24T09:03:51;6.97;;;5.60;;
7753;SDS011;3921;42.266;23.122;2023-04-24T09:06:22;6.83;;;5.17;;
7753;SDS011;3921;42.266;23.122;2023-04-24T09:08:50;6.13;;;5.00;;
7753;SDS011;3921;42.266;23.122;2023-04-24T09:11:21;5.97;;;5.30;;
7753;SDS011;3921;42.266;23.122;2023-04-24T09:13:49;5.60;;;5.00;;
7753;SDS011;3921;42.266;23.122;2023-04-24T09:16:26;8.33;;;5.10;;
7753;SDS011;3921;42.266;23.122;2023-04-24T09:18:55;7.20;;;4.83;;
7753;SDS011;3921;42.266;23.122;2023-04-24T09:21:24;7.30;;;4.70;;
7753;SDS011;3921;42.266;23.122;2023-04-24T09:23:59;5.70;;;5.10;;
7753;SDS011;3921;42.266;23.122;2023-04-24T09:26:28;5.23;;;4.77;;
7753;SDS011;3921;42.266;23.122;2023-04-24T09:28:58;5.13;;;4.63;;
7753;SDS011;3921;42.266;23.122;2023-04-24T09:31:27;4.83;;;4.43;;
7753;SDS011;3921;42.266;23.122;2023-04-24T09:33:55;5.03;;;4.63;;
7753;SDS011;3921;42.266;23.122;2023-04-24T09:36:28;6.40;;;4.03;;
7753;SDS011;3921;42.266;23.122;2023-04-24T09:38:58;5.00;;;4.37;;
7753;SDS011;3921;42.266;23.122;2023-04-24T09:41:26;5.40;;;4.90;;
7753;SDS011;3921;42.266;23.122;2023-04-24T09:43:54;4.97;;;4.47;;
7753;SDS011;3921;42.266;23.122;2023-04-24T09:46:28;7.63;;;4.90;;
7753;SDS011;3921;42.266;23.122;2023-04-24T09:48:56;4.70;;;4.20;;
7753;SDS011;3921;42.266;23.122;2023-04-24T09:51:33;7.27;;;4.33;;
7753;SDS011;3921;42.266;23.122;2023-04-24T09:54:03;4.67;;;3.93;;
7753;SDS011;3921;42.266;23.122;2023-04-24T09:56:34;6.70;;;3.37;;
7753;SDS011;3921;42.266;23.122;2023-04-24T09:59:04;6.07;;;4.03;;
7753;SDS011;3921;42.266;23.122;2023-04-24T10:01:32;4.07;;;3.73;;
7753;SDS011;3921;42.266;23.122;2023-04-24T10:04:00;4.57;;;3.80;;
7753;SDS011;3921;42.266;23.122;2023-04-24T10:06:34;4.30;;;3.90;;
7753;SDS011;3921;42.266;23.122;2023-04-24T10:11:51;4.10;;;3.70;;
7753;SDS011;3921;42.266;23.122;2023-04-24T10:14:20;6.93;;;4.13;;
7753;SDS011;3921;42.266;23.122;2023-04-24T10:16:48;5.37;;;4.53;;
7753;SDS011;3921;42.266;23.122;2023-04-24T10:19:16;5.33;;;4.37;;
7753;SDS011;3921;42.266;23.122;2023-04-24T10:21:46;6.80;;;4.47;;
7753;SDS011;3921;42.266;23.122;2023-04-24T10:24:14;4.83;;;4.30;;
7753;SDS011;3921;42.266;23.122;2023-04-24T10:26:42;5.00;;;4.27;;
7753;SDS011;3921;42.266;23.122;2023-04-24T10:29:10;15.50;;;4.37;;
7753;SDS011;3921;42.266;23.122;2023-04-24T10:31:38;6.20;;;4.47;;
7753;SDS011;3921;42.266;23.122;2023-04-24T10:34:05;7.03;;;4.60;;
7753;SDS011;3921;42.266;23.122;2023-04-24T10:36:33;4.90;;;4.50;;
7753;SDS011;3921;42.266;23.122;2023-04-24T10:39:03;6.17;;;4.10;;
7753;SDS011;3921;42.266;23.122;2023-04-24T10:41:36;4.73;;;4.20;;
7753;SDS011;3921;42.266;23.122;2023-04-24T10:44:04;4.80;;;4.40;;
7753;SDS011;3921;42.266;23.122;2023-04-24T10:46:32;5.13;;;4.17;;
7753;SDS011;3921;42.266;23.122;2023-04-24T10:48:59;6.67;;;4.17;;
7753;SDS011;3921;42.266;23.122;2023-04-24T10:54:25;5.17;;;4.77;;
7753;SDS011;3921;42.266;23.122;2023-04-24T10:56:53;4.80;;;4.40;;
7753;SDS011;3921;42.266;23.122;2023-04-24T11:02:45;5.30;;;4.67;;
7753;SDS011;3921;42.266;23.122;2023-04-24T11:05:15;4.40;;;4.00;;
7753;SDS011;3921;42.266;23.122;2023-04-24T11:10:39;5.30;;;4.57;;
7753;SDS011;3921;42.266;23.122;2023-04-24T11:13:07;4.10;;;3.70;;
7753;SDS011;3921;42.266;23.122;2023-04-24T11:15:34;5.23;;;4.73;;
7753;SDS011;3921;42.266;23.122;2023-04-24T11:18:01;4.90;;;4.47;;
7753;SDS011;3921;42.266;23.122;2023-04-24T11:20:28;4.27;;;3.87;;
7753;SDS011;3921;42.266;23.122;2023-04-24T11:22:57;4.30;;;3.90;;
7753;SDS011;3921;42.266;23.122;2023-04-24T11:25:31;4.83;;;4.33;;
7753;SDS011;3921;42.266;23.122;2023-04-24T11:28:06;4.40;;;4.00;;
7753;SDS011;3921;42.266;23.122;2023-04-24T11:30:33;6.33;;;4.03;;
7753;SDS011;3921;42.266;23.122;2023-04-24T11:33:04;4.93;;;4.07;;
7753;SDS011;3921;42.266;23.122;2023-04-24T11:35:35;5.40;;;4.37;;
7753;SDS011;3921;42.266;23.122;2023-04-24T11:38:06;6.20;;;4.70;;
7753;SDS011;3921;42.266;23.122;2023-04-24T11:40:33;4.40;;;4.00;;
7753;SDS011;3921;42.266;23.122;2023-04-24T11:43:01;5.47;;;4.27;;
7753;SDS011;3921;42.266;23.122;2023-04-24T11:45:32;4.70;;;3.97;;
7753;SDS011;3921;42.266;23.122;2023-04-24T11:47:59;5.90;;;4.47;;
7753;SDS011;3921;42.266;23.122;2023-04-24T11:50:26;4.90;;;4.40;;
7753;SDS011;3921;42.266;23.122;2023-04-24T11:52:54;6.30;;;4.17;;
7753;SDS011;3921;42.266;23.122;2023-04-24T11:55:22;5.40;;;4.13;;
7753;SDS011;3921;42.266;23.122;2023-04-24T11:57:53;5.40;;;4.47;;
7753;SDS011;3921;42.266;23.122;2023-04-24T12:00:22;5.10;;;4.60;;
7753;SDS011;3921;42.266;23.122;2023-04-24T12:03:03;5.23;;;3.97;;
7753;SDS011;3921;42.266;23.122;2023-04-24T12:05:32;5.63;;;4.37;;
7753;SDS011;3921;42.266;23.122;2023-04-24T12:07:59;6.10;;;4.67;;
7753;SDS011;3921;42.266;23.122;2023-04-24T12:10:27;4.43;;;4.00;;
7753;SDS011;3921;42.266;23.122;2023-04-24T12:12:56;6.03;;;4.33;;
7753;SDS011;3921;42.266;23.122;2023-04-24T12:15:24;4.60;;;4.23;;
7753;SDS011;3921;42.266;23.122;2023-04-24T12:17:56;6.00;;;4.50;;
7753;SDS011;3921;42.266;23.122;2023-04-24T12:20:23;5.30;;;4.17;;
7753;SDS011;3921;42.266;23.122;2023-04-24T12:22:53;5.83;;;4.57;;
7753;SDS011;3921;42.266;23.122;2023-04-24T12:25:23;6.37;;;4.30;;
7753;SDS011;3921;42.266;23.122;2023-04-24T12:27:54;5.77;;;4.20;;
7753;SDS011;3921;42.266;23.122;2023-04-24T12:30:40;7.50;;;4.37;;
7753;SDS011;3921;42.266;23.122;2023-04-24T12:33:16;5.57;;;4.07;;
7753;SDS011;3921;42.266;23.122;2023-04-24T12:35:47;5.80;;;5.20;;
7753;SDS011;3921;42.266;23.122;2023-04-24T12:38:15;5.17;;;4.27;;
7753;SDS011;3921;42.266;23.122;2023-04-24T12:40:45;5.77;;;4.17;;
7753;SDS011;3921;42.266;23.122;2023-04-24T12:43:13;4.83;;;4.30;;
7753;SDS011;3921;42.266;23.122;2023-04-24T12:45:41;5.10;;;4.33;;
7753;SDS011;3921;42.266;23.122;2023-04-24T12:48:11;5.37;;;4.30;;
7753;SDS011;3921;42.266;23.122;2023-04-24T12:50:44;5.67;;;4.13;;
7753;SDS011;3921;42.266;23.122;2023-04-24T12:53:11;5.50;;;4.27;;
7753;SDS011;3921;42.266;23.122;2023-04-24T12:55:38;4.50;;;4.10;;
7753;SDS011;3921;42.266;23.122;2023-04-24T12:58:12;4.63;;;3.60;;
7753;SDS011;3921;42.266;23.122;2023-04-24T13:00:39;8.63;;;4.30;;
7753;SDS011;3921;42.266;23.122;2023-04-24T13:03:08;4.63;;;4.10;;
7753;SDS011;3921;42.266;23.122;2023-04-24T13:05:37;5.60;;;3.90;;
7753;SDS011;3921;42.266;23.122;2023-04-24T13:08:04;4.70;;;3.83;;
7753;SDS011;3921;42.266;23.122;2023-04-24T13:10:31;4.50;;;4.10;;
7753;SDS011;3921;42.266;23.122;2023-04-24T13:12:58;5.67;;;4.50;;
7753;SDS011;3921;42.266;23.122;2023-04-24T13:15:26;4.20;;;3.80;;
7753;SDS011;3921;42.266;23.122;2023-04-24T13:17:53;5.00;;;4.53;;
7753;SDS011;3921;42.266;23.122;2023-04-24T13:20:23;4.90;;;4.50;;
7753;SDS011;3921;42.266;23.122;2023-04-24T13:22:52;5.10;;;4.60;;
7753;SDS011;3921;42.266;23.122;2023-04-24T13:25:19;4.87;;;4.40;;
7753;SDS011;3921;42.266;23.122;2023-04-24T13:27:48;6.43;;;4.60;;
7753;SDS011;3921;42.266;23.122;2023-04-24T13:30:16;4.73;;;3.90;;
7753;SDS011;3921;42.266;23.122;2023-04-24T13:32:43;6.40;;;3.90;;
7753;SDS011;3921;42.266;23.122;2023-04-24T13:35:10;4.80;;;4.17;;
7753;SDS011;3921;42.266;23.122;2023-04-24T13:37:40;4.30;;;3.90;;
7753;SDS011;3921;42.266;23.122;2023-04-24T13:40:12;4.47;;;3.80;;
7753;SDS011;3921;42.266;23.122;2023-04-24T13:42:39;4.93;;;4.30;;
7753;SDS011;3921;42.266;23.122;2023-04-24T13:45:10;4.47;;;4.07;;
7753;SDS011;3921;42.266;23.122;2023-04-24T13:47:37;7.93;;;3.87;;
7753;SDS011;3921;42.266;23.122;2023-04-24T13:50:09;4.97;;;3.80;;
7753;SDS011;3921;42.266;23.122;2023-04-24T13:52:36;5.73;;;4.00;;
7753;SDS011;3921;42.266;23.122;2023-04-24T13:55:03;5.57;;;3.97;;
7753;SDS011;3921;42.266;23.122;2023-04-24T13:57:36;4.97;;;4.00;;
7753;SDS011;3921;42.266;23.122;2023-04-24T14:00:03;6.13;;;3.47;;
7753;SDS011;3921;42.266;23.122;2023-04-24T14:02:35;5.17;;;3.63;;
7753;SDS011;3921;42.266;23.122;2023-04-24T14:05:02;11.60;;;4.30;;
7753;SDS011;3921;42.266;23.122;2023-04-24T14:07:32;4.00;;;3.60;;
7753;SDS011;3921;42.266;23.122;2023-04-24T14:09:59;5.60;;;3.70;;
7753;SDS011;3921;42.266;23.122;2023-04-24T14:12:27;7.33;;;3.97;;
7753;SDS011;3921;42.266;23.122;2023-04-24T14:14:55;5.20;;;3.87;;
7753;SDS011;3921;42.266;23.122;2023-04-24T14:17:22;4.50;;;4.10;;
7753;SDS011;3921;42.266;23.122;2023-04-24T14:19:50;6.90;;;4.00;;
7753;SDS011;3921;42.266;23.122;2023-04-24T14:22:17;5.57;;;4.50;;
7753;SDS011;3921;42.266;23.122;2023-04-24T14:24:45;4.47;;;4.07;;
7753;SDS011;3921;42.266;23.122;2023-04-24T14:27:12;5.17;;;4.40;;
7753;SDS011;3921;42.266;23.122;2023-04-24T14:29:39;6.07;;;4.20;;
7753;SDS011;3921;42.266;23.122;2023-04-24T14:32:07;4.87;;;4.47;;
7753;SDS011;3921;42.266;23.122;2023-04-24T14:34:34;4.93;;;4.50;;
7753;SDS011;3921;42.266;23.122;2023-04-24T14:37:01;7.47;;;4.33;;
7753;SDS011;3921;42.266;23.122;2023-04-24T14:39:29;5.03;;;4.30;;
7753;SDS011;3921;42.266;23.122;2023-04-24T14:41:57;5.07;;;4.57;;
7753;SDS011;3921;42.266;23.122;2023-04-24T14:44:24;5.43;;;4.27;;
7753;SDS011;3921;42.266;23.122;2023-04-24T14:46:54;5.97;;;4.00;;
7753;SDS011;3921;42.266;23.122;2023-04-24T14:49:28;7.90;;;4.20;;
7753;SDS011;3921;42.266;23.122;2023-04-24T14:51:58;5.73;;;4.50;;
7753;SDS011;3921;42.266;23.122;2023-04-24T14:54:25;6.33;;;5.03;;
7753;SDS011;3921;42.266;23.122;2023-04-24T14:56:52;6.90;;;5.10;;
7753;SDS011;3921;42.266;23.122;2023-04-24T14:59:22;8.87;;;5.30;;
7753;SDS011;3921;42.266;23.122;2023-04-24T15:01:49;7.03;;;5.50;;
7753;SDS011;3921;42.266;23.122;2023-04-24T15:04:18;6.27;;;4.83;;
7753;SDS011;3921;42.266;23.122;2023-04-24T15:06:49;8.23;;;5.63;;
7753;SDS011;3921;42.266;23.122;2023-04-24T15:09:16;6.23;;;4.23;;
7753;SDS011;3921;42.266;23.122;2023-04-24T15:11:43;9.03;;;5.20;;
7753;SDS011;3921;42.266;23.122;2023-04-24T15:14:10;5.70;;;5.10;;
7753;SDS011;3921;42.266;23.122;2023-04-24T15:16:37;5.07;;;4.50;;